sensor_id;sensor_type;location;lat;lon;timestamp;temperature;humidity
51035;DHT22;37062;52.546;13.230;2024-03-08T00:00:46;4.20;99.90
51035;DHT22;37062;52.546;13.230;2024-03-08T00:03:14;4.20;99.90
51035;DHT22;37062;52.546;13.230;2024-03-08T00:05:42;4.20;99.90
51035;DHT22;37062;52.546;13.230;2024-03-08T00:08:11;4.20;99.90
51035;DHT22;37062;52.546;13.230;2024-03-08T00:10:39;4.10;99.90
51035;DHT22;37062;52.546;13.230;2024-03-08T00:13:07;4.10;99.90
51035;DHT22;37062;52.546;13.230;2024-03-08T00:15:37;4.10;99.90
51035;DHT22;37062;52.546;13.230;2024-03-08T00:18:05;4.00;99.90
51035;DHT22;37062;52.546;13.230;2024-03-08T00:20:33;4.00;99.90
51035;DHT22;37062;52.546;13.230;2024-03-08T00:23:02;4.00;99.90
51035;DHT22;37062;52.546;13.230;2024-03-08T00:25:30;3.90;99.90
51035;DHT22;37062;52.546;13.230;2024-03-08T00:27:59;3.90;99.90
51035;DHT22;37062;52.546;13.230;2024-03-08T00:30:27;5.20;99.90
51035;DHT22;37062;52.546;13.230;2024-03-08T00:32:57;3.80;99.90
51035;DHT22;37062;52.546;13.230;2024-03-08T00:35:27;3.80;99.90
51035;DHT22;37062;52.546;13.230;2024-03-08T00:37:55;3.80;99.90
51035;DHT22;37062;52.546;13.230;2024-03-08T00:40:25;3.60;99.90
51035;DHT22;37062;52.546;13.230;2024-03-08T00:42:54;3.70;99.90
51035;DHT22;37062;52.546;13.230;2024-03-08T00:45:22;3.70;99.90
51035;DHT22;37062;52.546;13.230;2024-03-08T00:47:51;3.60;99.90
51035;DHT22;37062;52.546;13.230;2024-03-08T00:50:20;3.60;99.90
51035;DHT22;37062;52.546;13.230;2024-03-08T00:52:49;3.50;99.90
51035;DHT22;37062;52.546;13.230;2024-03-08T00:55:17;3.40;99.90
51035;DHT22;37062;52.546;13.230;2024-03-08T00:57:46;3.40;99.90
51035;DHT22;37062;52.546;13.230;2024-03-08T01:00:14;3.20;99.90
51035;DHT22;37062;52.546;13.230;2024-03-08T01:02:43;3.20;99.90
51035;DHT22;37062;52.546;13.230;2024-03-08T01:05:12;3.10;99.90
51035;DHT22;37062;52.546;13.230;2024-03-08T01:07:42;3.00;99.90
51035;DHT22;37062;52.546;13.230;2024-03-08T01:10:13;2.80;99.90
51035;DHT22;37062;52.546;13.230;2024-03-08T01:12:41;2.80;99.90
51035;DHT22;37062;52.546;13.230;2024-03-08T01:15:10;2.90;99.90
51035;DHT22;37062;52.546;13.230;2024-03-08T01:17:39;2.80;99.90
51035;DHT22;37062;52.546;13.230;2024-03-08T01:20:08;2.80;99.90
51035;DHT22;37062;52.546;13.230;2024-03-08T01:22:38;2.60;99.90
51035;DHT22;37062;52.546;13.230;2024-03-08T01:25:08;2.60;99.90
51035;DHT22;37062;52.546;13.230;2024-03-08T01:27:37;2.60;99.90
51035;DHT22;37062;52.546;13.230;2024-03-08T01:30:06;2.60;99.90
51035;DHT22;37062;52.546;13.230;2024-03-08T01:32:36;2.60;99.90
51035;DHT22;37062;52.546;13.230;2024-03-08T01:35:06;2.60;99.90
51035;DHT22;37062;52.546;13.230;2024-03-08T01:37:36;2.50;99.90
51035;DHT22;37062;52.546;13.230;2024-03-08T01:40:06;2.50;99.90
51035;DHT22;37062;52.546;13.230;2024-03-08T01:42:36;2.40;99.90
51035;DHT22;37062;52.546;13.230;2024-03-08T01:45:06;2.50;99.90
51035;DHT22;37062;52.546;13.230;2024-03-08T01:47:35;2.50;99.90
51035;DHT22;37062;52.546;13.230;2024-03-08T01:50:05;2.40;99.90
51035;DHT22;37062;52.546;13.230;2024-03-08T01:52:34;2.50;99.90
51035;DHT22;37062;52.546;13.230;2024-03-08T01:55:05;2.50;99.90
51035;DHT22;37062;52.546;13.230;2024-03-08T01:57:36;2.60;99.90
51035;DHT22;37062;52.546;13.230;2024-03-08T02:00:06;2.70;99.90
51035;DHT22;37062;52.546;13.230;2024-03-08T02:02:38;2.50;99.90
51035;DHT22;37062;52.546;13.230;2024-03-08T02:05:08;2.40;99.90
51035;DHT22;37062;52.546;13.230;2024-03-08T02:07:36;2.50;99.90
51035;DHT22;37062;52.546;13.230;2024-03-08T02:10:05;2.50;99.90
51035;DHT22;37062;52.546;13.230;2024-03-08T02:12:35;2.50;99.90
51035;DHT22;37062;52.546;13.230;2024-03-08T02:15:05;2.50;99.90
51035;DHT22;37062;52.546;13.230;2024-03-08T02:17:34;2.50;99.90
51035;DHT22;37062;52.546;13.230;2024-03-08T02:20:03;2.50;99.90
51035;DHT22;37062;52.546;13.230;2024-03-08T02:22:33;2.60;99.90
51035;DHT22;37062;52.546;13.230;2024-03-08T02:25:03;2.60;99.90
51035;DHT22;37062;52.546;13.230;2024-03-08T02:27:32;2.60;99.90
51035;DHT22;37062;52.546;13.230;2024-03-08T02:30:00;2.60;99.90
51035;DHT22;37062;52.546;13.230;2024-03-08T02:32:29;2.60;99.90
51035;DHT22;37062;52.546;13.230;2024-03-08T02:34:59;3.00;99.90
51035;DHT22;37062;52.546;13.230;2024-03-08T02:37:28;2.50;99.90
51035;DHT22;37062;52.546;13.230;2024-03-08T02:39:58;2.50;99.90
51035;DHT22;37062;52.546;13.230;2024-03-08T02:42:26;2.40;99.90
51035;DHT22;37062;52.546;13.230;2024-03-08T02:44:55;2.20;99.90
51035;DHT22;37062;52.546;13.230;2024-03-08T02:47:23;2.10;99.90
51035;DHT22;37062;52.546;13.230;2024-03-08T02:49:54;2.20;99.90
51035;DHT22;37062;52.546;13.230;2024-03-08T02:52:23;2.30;99.90
51035;DHT22;37062;52.546;13.230;2024-03-08T02:54:51;3.20;99.90
51035;DHT22;37062;52.546;13.230;2024-03-08T02:57:21;3.00;99.90
51035;DHT22;37062;52.546;13.230;2024-03-08T02:59:50;2.20;99.90
51035;DHT22;37062;52.546;13.230;2024-03-08T03:02:18;2.00;99.90
51035;DHT22;37062;52.546;13.230;2024-03-08T03:04:47;1.80;99.90
51035;DHT22;37062;52.546;13.230;2024-03-08T03:07:15;1.80;99.90
51035;DHT22;37062;52.546;13.230;2024-03-08T03:09:43;1.80;99.90
51035;DHT22;37062;52.546;13.230;2024-03-08T03:12:12;1.70;99.90
51035;DHT22;37062;52.546;13.230;2024-03-08T03:14:42;1.70;99.90
51035;DHT22;37062;52.546;13.230;2024-03-08T03:17:10;1.70;99.90
51035;DHT22;37062;52.546;13.230;2024-03-08T03:19:40;1.70;99.90
51035;DHT22;37062;52.546;13.230;2024-03-08T03:22:09;1.80;99.90
51035;DHT22;37062;52.546;13.230;2024-03-08T03:24:37;1.90;99.90
51035;DHT22;37062;52.546;13.230;2024-03-08T03:27:06;1.90;99.90
51035;DHT22;37062;52.546;13.230;2024-03-08T03:29:38;1.90;99.90
51035;DHT22;37062;52.546;13.230;2024-03-08T03:32:08;1.90;99.90
51035;DHT22;37062;52.546;13.230;2024-03-08T03:34:36;2.00;99.90
51035;DHT22;37062;52.546;13.230;2024-03-08T03:37:05;1.90;99.90
51035;DHT22;37062;52.546;13.230;2024-03-08T03:39:33;2.00;99.90
51035;DHT22;37062;52.546;13.230;2024-03-08T03:42:07;2.00;99.90
51035;DHT22;37062;52.546;13.230;2024-03-08T03:44:35;2.00;99.90
51035;DHT22;37062;52.546;13.230;2024-03-08T03:47:04;2.00;99.90
51035;DHT22;37062;52.546;13.230;2024-03-08T03:49:35;2.00;99.90
51035;DHT22;37062;52.546;13.230;2024-03-08T03:52:03;2.50;99.90
51035;DHT22;37062;52.546;13.230;2024-03-08T03:54:31;1.80;99.90
51035;DHT22;37062;52.546;13.230;2024-03-08T03:57:00;1.70;99.90
51035;DHT22;37062;52.546;13.230;2024-03-08T03:59:29;1.70;99.90
51035;DHT22;37062;52.546;13.230;2024-03-08T04:01:58;1.80;99.90
51035;DHT22;37062;52.546;13.230;2024-03-08T04:04:26;1.80;99.90
51035;DHT22;37062;52.546;13.230;2024-03-08T04:06:56;1.80;99.90
51035;DHT22;37062;52.546;13.230;2024-03-08T04:09:24;2.30;99.90
51035;DHT22;37062;52.546;13.230;2024-03-08T04:11:53;1.80;99.90
51035;DHT22;37062;52.546;13.230;2024-03-08T04:14:23;1.80;99.90
51035;DHT22;37062;52.546;13.230;2024-03-08T04:16:51;1.70;99.90
51035;DHT22;37062;52.546;13.230;2024-03-08T04:19:19;1.60;99.90
51035;DHT22;37062;52.546;13.230;2024-03-08T04:21:48;1.40;99.90
51035;DHT22;37062;52.546;13.230;2024-03-08T04:24:17;1.40;99.90
51035;DHT22;37062;52.546;13.230;2024-03-08T04:26:46;1.50;99.90
51035;DHT22;37062;52.546;13.230;2024-03-08T04:29:14;1.30;99.90
51035;DHT22;37062;52.546;13.230;2024-03-08T04:31:44;1.70;99.90
51035;DHT22;37062;52.546;13.230;2024-03-08T04:34:12;1.20;99.90
51035;DHT22;37062;52.546;13.230;2024-03-08T04:36:41;1.10;99.90
51035;DHT22;37062;52.546;13.230;2024-03-08T04:39:10;1.00;99.90
51035;DHT22;37062;52.546;13.230;2024-03-08T04:41:41;1.00;99.90
51035;DHT22;37062;52.546;13.230;2024-03-08T04:44:11;0.90;99.90
51035;DHT22;37062;52.546;13.230;2024-03-08T04:46:39;0.90;99.90
51035;DHT22;37062;52.546;13.230;2024-03-08T04:49:07;0.90;99.90
51035;DHT22;37062;52.546;13.230;2024-03-08T04:51:38;1.00;99.90
51035;DHT22;37062;52.546;13.230;2024-03-08T04:54:07;1.10;99.90
51035;DHT22;37062;52.546;13.230;2024-03-08T04:56:35;1.30;99.90
51035;DHT22;37062;52.546;13.230;2024-03-08T04:59:05;1.30;99.90
51035;DHT22;37062;52.546;13.230;2024-03-08T05:01:34;1.20;99.90
51035;DHT22;37062;52.546;13.230;2024-03-08T05:04:04;1.10;99.90
51035;DHT22;37062;52.546;13.230;2024-03-08T05:06:36;1.30;99.90
51035;DHT22;37062;52.546;13.230;2024-03-08T05:09:04;1.30;99.90
51035;DHT22;37062;52.546;13.230;2024-03-08T05:11:41;1.30;99.90
51035;DHT22;37062;52.546;13.230;2024-03-08T05:14:11;1.30;99.90
51035;DHT22;37062;52.546;13.230;2024-03-08T05:16:43;1.80;99.90
51035;DHT22;37062;52.546;13.230;2024-03-08T05:19:15;1.20;99.90
51035;DHT22;37062;52.546;13.230;2024-03-08T05:21:44;1.00;99.90
51035;DHT22;37062;52.546;13.230;2024-03-08T05:24:13;1.00;99.90
51035;DHT22;37062;52.546;13.230;2024-03-08T05:26:41;1.00;99.90
51035;DHT22;37062;52.546;13.230;2024-03-08T05:29:11;1.70;99.90
51035;DHT22;37062;52.546;13.230;2024-03-08T05:31:47;1.00;99.90
51035;DHT22;37062;52.546;13.230;2024-03-08T05:34:16;1.20;99.90
51035;DHT22;37062;52.546;13.230;2024-03-08T05:36:46;1.20;99.90
51035;DHT22;37062;52.546;13.230;2024-03-08T05:39:17;1.20;99.90
51035;DHT22;37062;52.546;13.230;2024-03-08T05:41:45;1.10;99.90
51035;DHT22;37062;52.546;13.230;2024-03-08T05:44:15;1.00;99.90
51035;DHT22;37062;52.546;13.230;2024-03-08T05:46:44;0.90;99.90
51035;DHT22;37062;52.546;13.230;2024-03-08T05:49:14;0.90;99.90
51035;DHT22;37062;52.546;13.230;2024-03-08T05:51:42;0.80;99.90
51035;DHT22;37062;52.546;13.230;2024-03-08T05:54:11;0.90;99.90
51035;DHT22;37062;52.546;13.230;2024-03-08T05:56:44;0.90;99.90
51035;DHT22;37062;52.546;13.230;2024-03-08T05:59:12;0.90;99.90
51035;DHT22;37062;52.546;13.230;2024-03-08T06:01:42;0.90;99.90
51035;DHT22;37062;52.546;13.230;2024-03-08T06:04:10;1.10;99.90
51035;DHT22;37062;52.546;13.230;2024-03-08T06:06:39;1.10;99.90
51035;DHT22;37062;52.546;13.230;2024-03-08T06:09:08;1.20;99.90
51035;DHT22;37062;52.546;13.230;2024-03-08T06:11:39;1.50;99.90
51035;DHT22;37062;52.546;13.230;2024-03-08T06:14:09;1.60;99.90
51035;DHT22;37062;52.546;13.230;2024-03-08T06:16:38;1.60;99.90
51035;DHT22;37062;52.546;13.230;2024-03-08T06:19:07;1.70;99.90
51035;DHT22;37062;52.546;13.230;2024-03-08T06:21:35;1.90;99.90
51035;DHT22;37062;52.546;13.230;2024-03-08T06:24:04;3.50;99.90
51035;DHT22;37062;52.546;13.230;2024-03-08T06:26:32;2.20;99.90
51035;DHT22;37062;52.546;13.230;2024-03-08T06:29:04;2.30;99.90
51035;DHT22;37062;52.546;13.230;2024-03-08T06:31:33;2.70;99.90
51035;DHT22;37062;52.546;13.230;2024-03-08T06:34:08;3.50;99.90
51035;DHT22;37062;52.546;13.230;2024-03-08T06:36:36;3.60;99.90
51035;DHT22;37062;52.546;13.230;2024-03-08T06:39:05;4.00;99.90
51035;DHT22;37062;52.546;13.230;2024-03-08T06:41:37;4.40;99.90
51035;DHT22;37062;52.546;13.230;2024-03-08T06:44:06;4.90;99.90
51035;DHT22;37062;52.546;13.230;2024-03-08T06:46:35;5.40;99.90
51035;DHT22;37062;52.546;13.230;2024-03-08T06:49:05;6.00;99.90
51035;DHT22;37062;52.546;13.230;2024-03-08T06:51:36;6.70;99.90
51035;DHT22;37062;52.546;13.230;2024-03-08T06:54:04;7.10;99.90
51035;DHT22;37062;52.546;13.230;2024-03-08T06:56:36;7.40;99.90
51035;DHT22;37062;52.546;13.230;2024-03-08T06:59:04;7.90;99.90
51035;DHT22;37062;52.546;13.230;2024-03-08T07:01:34;8.40;99.90
51035;DHT22;37062;52.546;13.230;2024-03-08T07:04:04;8.40;99.90
51035;DHT22;37062;52.546;13.230;2024-03-08T07:06:33;8.60;99.90
51035;DHT22;37062;52.546;13.230;2024-03-08T07:09:02;8.80;99.90
51035;DHT22;37062;52.546;13.230;2024-03-08T07:11:31;9.10;99.90
51035;DHT22;37062;52.546;13.230;2024-03-08T07:13:59;9.10;99.90
51035;DHT22;37062;52.546;13.230;2024-03-08T07:16:29;9.10;99.90
51035;DHT22;37062;52.546;13.230;2024-03-08T07:18:58;9.00;99.90
51035;DHT22;37062;52.546;13.230;2024-03-08T07:21:27;9.10;99.90
51035;DHT22;37062;52.546;13.230;2024-03-08T07:23:56;9.10;99.90
51035;DHT22;37062;52.546;13.230;2024-03-08T07:26:41;9.70;99.90
51035;DHT22;37062;52.546;13.230;2024-03-08T07:29:09;10.10;99.90
51035;DHT22;37062;52.546;13.230;2024-03-08T07:31:38;9.70;99.90
51035;DHT22;37062;52.546;13.230;2024-03-08T07:34:17;10.10;99.90
51035;DHT22;37062;52.546;13.230;2024-03-08T07:36:45;10.60;99.90
51035;DHT22;37062;52.546;13.230;2024-03-08T07:39:13;10.80;99.90
51035;DHT22;37062;52.546;13.230;2024-03-08T07:41:44;10.80;99.90
51035;DHT22;37062;52.546;13.230;2024-03-08T07:44:12;11.10;99.90
51035;DHT22;37062;52.546;13.230;2024-03-08T07:46:41;11.40;99.90
51035;DHT22;37062;52.546;13.230;2024-03-08T07:49:09;11.90;99.90
51035;DHT22;37062;52.546;13.230;2024-03-08T07:51:38;12.20;99.90
51035;DHT22;37062;52.546;13.230;2024-03-08T07:54:06;12.10;99.90
51035;DHT22;37062;52.546;13.230;2024-03-08T07:56:36;12.70;99.90
51035;DHT22;37062;52.546;13.230;2024-03-08T07:59:06;13.20;99.90
51035;DHT22;37062;52.546;13.230;2024-03-08T08:01:34;13.70;99.90
51035;DHT22;37062;52.546;13.230;2024-03-08T08:04:03;14.20;99.90
51035;DHT22;37062;52.546;13.230;2024-03-08T08:06:31;13.50;99.90
51035;DHT22;37062;52.546;13.230;2024-03-08T08:09:00;13.60;99.90
51035;DHT22;37062;52.546;13.230;2024-03-08T08:11:28;13.30;99.90
51035;DHT22;37062;52.546;13.230;2024-03-08T08:13:58;13.20;99.90
51035;DHT22;37062;52.546;13.230;2024-03-08T08:16:29;12.30;99.90
51035;DHT22;37062;52.546;13.230;2024-03-08T08:18:57;11.50;99.90
51035;DHT22;37062;52.546;13.230;2024-03-08T08:21:26;11.50;99.90
51035;DHT22;37062;52.546;13.230;2024-03-08T08:23:54;11.80;99.90
51035;DHT22;37062;52.546;13.230;2024-03-08T08:26:25;11.90;99.90
51035;DHT22;37062;52.546;13.230;2024-03-08T08:28:54;12.10;99.90
51035;DHT22;37062;52.546;13.230;2024-03-08T08:31:22;11.90;99.90
51035;DHT22;37062;52.546;13.230;2024-03-08T08:33:52;11.70;99.90
51035;DHT22;37062;52.546;13.230;2024-03-08T08:36:25;11.40;99.90
51035;DHT22;37062;52.546;13.230;2024-03-08T08:38:53;11.20;99.90
51035;DHT22;37062;52.546;13.230;2024-03-08T08:41:23;11.20;99.90
51035;DHT22;37062;52.546;13.230;2024-03-08T08:43:52;11.10;99.90
51035;DHT22;37062;52.546;13.230;2024-03-08T08:46:34;10.60;99.90
51035;DHT22;37062;52.546;13.230;2024-03-08T08:49:09;9.70;99.90
51035;DHT22;37062;52.546;13.230;2024-03-08T08:51:37;9.50;99.90
51035;DHT22;37062;52.546;13.230;2024-03-08T08:54:06;10.00;99.90
51035;DHT22;37062;52.546;13.230;2024-03-08T08:56:38;10.20;99.90
51035;DHT22;37062;52.546;13.230;2024-03-08T08:59:07;10.00;99.90
51035;DHT22;37062;52.546;13.230;2024-03-08T09:01:36;9.80;99.90
51035;DHT22;37062;52.546;13.230;2024-03-08T09:04:04;9.80;99.90
51035;DHT22;37062;52.546;13.230;2024-03-08T09:06:35;9.80;99.90
51035;DHT22;37062;52.546;13.230;2024-03-08T09:09:04;9.90;99.90
51035;DHT22;37062;52.546;13.230;2024-03-08T09:11:33;9.40;99.90
51035;DHT22;37062;52.546;13.230;2024-03-08T09:14:01;9.60;99.90
51035;DHT22;37062;52.546;13.230;2024-03-08T09:16:30;9.80;99.90
51035;DHT22;37062;52.546;13.230;2024-03-08T09:19:00;9.70;99.90
51035;DHT22;37062;52.546;13.230;2024-03-08T09:21:28;9.60;99.90
51035;DHT22;37062;52.546;13.230;2024-03-08T09:23:59;9.50;99.90
51035;DHT22;37062;52.546;13.230;2024-03-08T09:26:28;9.50;99.90
51035;DHT22;37062;52.546;13.230;2024-03-08T09:28:56;9.90;99.90
51035;DHT22;37062;52.546;13.230;2024-03-08T09:31:24;9.60;99.90
51035;DHT22;37062;52.546;13.230;2024-03-08T09:33:52;9.60;99.90
51035;DHT22;37062;52.546;13.230;2024-03-08T09:36:21;9.40;99.90
51035;DHT22;37062;52.546;13.230;2024-03-08T09:38:49;9.50;99.90
51035;DHT22;37062;52.546;13.230;2024-03-08T09:41:19;9.30;99.90
51035;DHT22;37062;52.546;13.230;2024-03-08T09:43:48;9.30;99.90
51035;DHT22;37062;52.546;13.230;2024-03-08T09:46:17;8.90;99.90
51035;DHT22;37062;52.546;13.230;2024-03-08T09:48:46;9.10;99.90
51035;DHT22;37062;52.546;13.230;2024-03-08T09:51:15;9.20;99.90
51035;DHT22;37062;52.546;13.230;2024-03-08T09:53:44;9.30;99.90
51035;DHT22;37062;52.546;13.230;2024-03-08T09:56:13;8.80;99.90
51035;DHT22;37062;52.546;13.230;2024-03-08T09:58:43;8.50;99.90
51035;DHT22;37062;52.546;13.230;2024-03-08T10:01:42;8.40;99.90
51035;DHT22;37062;52.546;13.230;2024-03-08T10:04:11;8.20;99.90
51035;DHT22;37062;52.546;13.230;2024-03-08T10:06:40;8.10;99.90
51035;DHT22;37062;52.546;13.230;2024-03-08T10:09:09;8.20;99.90
51035;DHT22;37062;52.546;13.230;2024-03-08T10:11:40;8.40;99.90
51035;DHT22;37062;52.546;13.230;2024-03-08T10:14:10;8.30;99.90
51035;DHT22;37062;52.546;13.230;2024-03-08T10:16:39;8.40;99.90
51035;DHT22;37062;52.546;13.230;2024-03-08T10:19:08;8.50;99.90
51035;DHT22;37062;52.546;13.230;2024-03-08T10:21:47;8.40;99.90
51035;DHT22;37062;52.546;13.230;2024-03-08T10:24:16;8.40;99.90
51035;DHT22;37062;52.546;13.230;2024-03-08T10:26:45;8.70;99.90
51035;DHT22;37062;52.546;13.230;2024-03-08T10:29:19;8.80;99.90
51035;DHT22;37062;52.546;13.230;2024-03-08T10:31:50;8.80;99.90
51035;DHT22;37062;52.546;13.230;2024-03-08T10:34:18;8.90;99.90
51035;DHT22;37062;52.546;13.230;2024-03-08T10:36:50;9.00;99.90
51035;DHT22;37062;52.546;13.230;2024-03-08T10:39:22;8.90;99.90
51035;DHT22;37062;52.546;13.230;2024-03-08T10:41:54;8.30;99.90
51035;DHT22;37062;52.546;13.230;2024-03-08T10:44:37;8.10;99.90
51035;DHT22;37062;52.546;13.230;2024-03-08T10:47:17;8.00;99.90
51035;DHT22;37062;52.546;13.230;2024-03-08T10:49:55;8.10;99.90
51035;DHT22;37062;52.546;13.230;2024-03-08T10:52:31;8.40;99.90
51035;DHT22;37062;52.546;13.230;2024-03-08T10:55:02;8.70;99.90
51035;DHT22;37062;52.546;13.230;2024-03-08T10:57:30;8.90;99.90
51035;DHT22;37062;52.546;13.230;2024-03-08T11:00:01;8.70;99.90
51035;DHT22;37062;52.546;13.230;2024-03-08T11:02:31;8.50;99.90
51035;DHT22;37062;52.546;13.230;2024-03-08T11:04:59;8.40;99.90
51035;DHT22;37062;52.546;13.230;2024-03-08T11:07:33;8.40;99.90
51035;DHT22;37062;52.546;13.230;2024-03-08T11:10:03;8.30;99.90
51035;DHT22;37062;52.546;13.230;2024-03-08T11:12:37;8.40;99.90
51035;DHT22;37062;52.546;13.230;2024-03-08T11:15:12;8.40;99.90
51035;DHT22;37062;52.546;13.230;2024-03-08T11:17:45;8.50;99.90
51035;DHT22;37062;52.546;13.230;2024-03-08T11:20:16;8.60;99.90
51035;DHT22;37062;52.546;13.230;2024-03-08T11:22:50;8.60;99.90
51035;DHT22;37062;52.546;13.230;2024-03-08T11:25:33;8.80;99.90
51035;DHT22;37062;52.546;13.230;2024-03-08T11:28:22;8.90;99.90
51035;DHT22;37062;52.546;13.230;2024-03-08T11:31:23;9.00;99.90
51035;DHT22;37062;52.546;13.230;2024-03-08T11:33:52;9.20;99.90
51035;DHT22;37062;52.546;13.230;2024-03-08T11:36:22;9.10;99.90
51035;DHT22;37062;52.546;13.230;2024-03-08T11:38:52;9.20;99.90
51035;DHT22;37062;52.546;13.230;2024-03-08T11:41:23;9.00;99.90
51035;DHT22;37062;52.546;13.230;2024-03-08T11:44:02;9.00;99.90
51035;DHT22;37062;52.546;13.230;2024-03-08T11:46:34;9.00;99.90
51035;DHT22;37062;52.546;13.230;2024-03-08T11:49:03;8.80;99.90
51035;DHT22;37062;52.546;13.230;2024-03-08T11:51:30;8.70;99.90
51035;DHT22;37062;52.546;13.230;2024-03-08T11:53:59;8.90;99.90
51035;DHT22;37062;52.546;13.230;2024-03-08T11:56:28;8.90;99.90
51035;DHT22;37062;52.546;13.230;2024-03-08T11:58:59;8.90;99.90
51035;DHT22;37062;52.546;13.230;2024-03-08T12:01:29;8.90;99.90
51035;DHT22;37062;52.546;13.230;2024-03-08T12:03:59;8.80;99.90
51035;DHT22;37062;52.546;13.230;2024-03-08T12:06:36;8.90;99.90
51035;DHT22;37062;52.546;13.230;2024-03-08T12:09:08;8.80;99.90
51035;DHT22;37062;52.546;13.230;2024-03-08T12:11:38;9.00;99.90
51035;DHT22;37062;52.546;13.230;2024-03-08T12:14:06;9.30;99.90
51035;DHT22;37062;52.546;13.230;2024-03-08T12:16:37;9.20;99.90
51035;DHT22;37062;52.546;13.230;2024-03-08T12:19:07;9.30;99.90
51035;DHT22;37062;52.546;13.230;2024-03-08T12:21:36;9.30;99.90
51035;DHT22;37062;52.546;13.230;2024-03-08T12:24:06;9.20;99.90
51035;DHT22;37062;52.546;13.230;2024-03-08T12:26:37;9.40;99.90
51035;DHT22;37062;52.546;13.230;2024-03-08T12:29:17;9.60;99.90
51035;DHT22;37062;52.546;13.230;2024-03-08T12:31:52;9.30;99.90
51035;DHT22;37062;52.546;13.230;2024-03-08T12:34:22;9.50;99.90
51035;DHT22;37062;52.546;13.230;2024-03-08T12:36:54;9.60;99.90
51035;DHT22;37062;52.546;13.230;2024-03-08T12:39:23;9.70;99.90
51035;DHT22;37062;52.546;13.230;2024-03-08T12:41:54;9.50;99.90
51035;DHT22;37062;52.546;13.230;2024-03-08T12:44:24;9.40;99.90
51035;DHT22;37062;52.546;13.230;2024-03-08T12:46:53;9.50;99.90
51035;DHT22;37062;52.546;13.230;2024-03-08T12:49:23;9.30;99.90
51035;DHT22;37062;52.546;13.230;2024-03-08T12:51:52;9.70;99.90
51035;DHT22;37062;52.546;13.230;2024-03-08T12:54:21;9.90;99.90
51035;DHT22;37062;52.546;13.230;2024-03-08T12:56:54;9.80;99.90
51035;DHT22;37062;52.546;13.230;2024-03-08T12:59:22;9.70;99.90
51035;DHT22;37062;52.546;13.230;2024-03-08T13:01:51;9.70;99.90
51035;DHT22;37062;52.546;13.230;2024-03-08T13:04:22;9.60;99.90
51035;DHT22;37062;52.546;13.230;2024-03-08T13:06:52;9.70;99.90
51035;DHT22;37062;52.546;13.230;2024-03-08T13:09:21;9.70;99.90
51035;DHT22;37062;52.546;13.230;2024-03-08T13:11:50;9.60;99.90
51035;DHT22;37062;52.546;13.230;2024-03-08T13:14:21;9.50;99.90
51035;DHT22;37062;52.546;13.230;2024-03-08T13:16:49;9.40;99.90
51035;DHT22;37062;52.546;13.230;2024-03-08T13:19:18;9.20;99.90
51035;DHT22;37062;52.546;13.230;2024-03-08T13:21:50;9.20;99.90
51035;DHT22;37062;52.546;13.230;2024-03-08T13:24:18;9.20;99.90
51035;DHT22;37062;52.546;13.230;2024-03-08T13:26:47;9.20;99.90
51035;DHT22;37062;52.546;13.230;2024-03-08T13:29:17;10.00;99.90
51035;DHT22;37062;52.546;13.230;2024-03-08T13:31:46;9.20;99.90
51035;DHT22;37062;52.546;13.230;2024-03-08T13:34:18;9.30;99.90
51035;DHT22;37062;52.546;13.230;2024-03-08T13:36:56;9.30;99.90
51035;DHT22;37062;52.546;13.230;2024-03-08T13:39:28;9.20;99.90
51035;DHT22;37062;52.546;13.230;2024-03-08T13:41:58;9.30;99.90
51035;DHT22;37062;52.546;13.230;2024-03-08T13:44:26;9.30;99.90
51035;DHT22;37062;52.546;13.230;2024-03-08T13:46:55;9.30;99.90
51035;DHT22;37062;52.546;13.230;2024-03-08T13:49:25;9.20;99.90
51035;DHT22;37062;52.546;13.230;2024-03-08T13:51:53;9.30;99.90
51035;DHT22;37062;52.546;13.230;2024-03-08T13:54:23;9.50;99.90
51035;DHT22;37062;52.546;13.230;2024-03-08T13:56:52;9.50;99.90
51035;DHT22;37062;52.546;13.230;2024-03-08T13:59:21;9.60;99.90
51035;DHT22;37062;52.546;13.230;2024-03-08T14:01:50;9.80;99.90
51035;DHT22;37062;52.546;13.230;2024-03-08T14:04:18;10.00;99.90
51035;DHT22;37062;52.546;13.230;2024-03-08T14:06:46;10.20;99.90
51035;DHT22;37062;52.546;13.230;2024-03-08T14:09:16;10.10;99.90
51035;DHT22;37062;52.546;13.230;2024-03-08T14:11:46;9.90;99.90
51035;DHT22;37062;52.546;13.230;2024-03-08T14:14:14;10.00;99.90
51035;DHT22;37062;52.546;13.230;2024-03-08T14:16:42;9.90;99.90
51035;DHT22;37062;52.546;13.230;2024-03-08T14:19:11;9.80;99.90
51035;DHT22;37062;52.546;13.230;2024-03-08T14:21:41;9.70;99.90
51035;DHT22;37062;52.546;13.230;2024-03-08T14:24:10;9.80;99.90
51035;DHT22;37062;52.546;13.230;2024-03-08T14:26:38;9.60;99.90
51035;DHT22;37062;52.546;13.230;2024-03-08T14:29:10;9.50;99.90
51035;DHT22;37062;52.546;13.230;2024-03-08T14:31:39;9.60;99.90
51035;DHT22;37062;52.546;13.230;2024-03-08T14:34:08;9.70;99.90
51035;DHT22;37062;52.546;13.230;2024-03-08T14:36:37;9.70;99.90
51035;DHT22;37062;52.546;13.230;2024-03-08T14:39:05;9.70;99.90
51035;DHT22;37062;52.546;13.230;2024-03-08T14:41:34;9.80;99.90
51035;DHT22;37062;52.546;13.230;2024-03-08T14:44:02;9.90;99.90
51035;DHT22;37062;52.546;13.230;2024-03-08T14:46:32;10.00;99.90
51035;DHT22;37062;52.546;13.230;2024-03-08T14:49:00;10.10;99.90
51035;DHT22;37062;52.546;13.230;2024-03-08T14:51:29;9.80;99.90
51035;DHT22;37062;52.546;13.230;2024-03-08T14:53:58;9.70;99.90
51035;DHT22;37062;52.546;13.230;2024-03-08T14:56:26;9.60;99.90
51035;DHT22;37062;52.546;13.230;2024-03-08T14:58:55;9.50;99.90
51035;DHT22;37062;52.546;13.230;2024-03-08T15:01:25;9.50;99.90
51035;DHT22;37062;52.546;13.230;2024-03-08T15:03:57;9.60;99.90
51035;DHT22;37062;52.546;13.230;2024-03-08T15:06:30;9.80;99.90
51035;DHT22;37062;52.546;13.230;2024-03-08T15:08:58;9.80;99.90
51035;DHT22;37062;52.546;13.230;2024-03-08T15:11:26;9.80;99.90
51035;DHT22;37062;52.546;13.230;2024-03-08T15:13:55;9.50;99.90
51035;DHT22;37062;52.546;13.230;2024-03-08T15:16:25;9.70;99.90
51035;DHT22;37062;52.546;13.230;2024-03-08T15:18:53;9.50;99.90
51035;DHT22;37062;52.546;13.230;2024-03-08T15:21:23;9.50;99.90
51035;DHT22;37062;52.546;13.230;2024-03-08T15:23:53;9.40;99.90
51035;DHT22;37062;52.546;13.230;2024-03-08T15:26:22;9.40;99.90
51035;DHT22;37062;52.546;13.230;2024-03-08T15:28:52;9.40;99.90
51035;DHT22;37062;52.546;13.230;2024-03-08T15:31:22;9.50;99.90
51035;DHT22;37062;52.546;13.230;2024-03-08T15:33:53;9.60;99.90
51035;DHT22;37062;52.546;13.230;2024-03-08T15:36:29;9.80;99.90
51035;DHT22;37062;52.546;13.230;2024-03-08T15:39:00;9.90;99.90
51035;DHT22;37062;52.546;13.230;2024-03-08T15:41:29;9.80;99.90
51035;DHT22;37062;52.546;13.230;2024-03-08T15:43:57;9.80;99.90
51035;DHT22;37062;52.546;13.230;2024-03-08T15:46:26;9.80;99.90